sensor_id;sensor_type;location;lat;lon;timestamp;P1;durP1;ratioP1;P2;durP2;ratioP2
71162;SDS011;58858;50.948;6.566;2023-03-14T00:01:31;5.95;;;1.55;;
71162;SDS011;58858;50.948;6.566;2023-03-14T00:11:32;6.65;;;2.13;;
71162;SDS011;58858;50.948;6.566;2023-03-14T00:21:33;5.07;;;1.33;;
71162;SDS011;58858;50.948;6.566;2023-03-14T00:31:34;5.32;;;1.50;;
71162;SDS011;58858;50.948;6.566;2023-03-14T00:41:36;5.75;;;1.38;;
71162;SDS011;58858;50.948;6.566;2023-03-14T00:51:37;5.40;;;1.05;;
71162;SDS011;58858;50.948;6.566;2023-03-14T01:01:39;6.97;;;1.02;;
71162;SDS011;58858;50.948;6.566;2023-03-14T01:11:40;3.33;;;1.05;;
71162;SDS011;58858;50.948;6.566;2023-03-14T01:21:42;7.13;;;1.77;;
71162;SDS011;58858;50.948;6.566;2023-03-14T01:31:43;4.78;;;0.98;;
71162;SDS011;58858;50.948;6.566;2023-03-14T01:41:45;3.03;;;0.85;;
71162;SDS011;58858;50.948;6.566;2023-03-14T02:02:06;6.35;;;1.40;;
71162;SDS011;58858;50.948;6.566;2023-03-14T02:12:12;6.45;;;1.45;;
71162;SDS011;58858;50.948;6.566;2023-03-14T02:22:22;3.45;;;0.80;;
71162;SDS011;58858;50.948;6.566;2023-03-14T02:32:31;6.03;;;1.67;;
71162;SDS011;58858;50.948;6.566;2023-03-14T02:42:34;7.72;;;1.70;;
71162;SDS011;58858;50.948;6.566;2023-03-14T02:52:37;8.43;;;1.65;;
71162;SDS011;58858;50.948;6.566;2023-03-14T03:02:38;5.20;;;1.40;;
71162;SDS011;58858;50.948;6.566;2023-03-14T03:12:39;5.43;;;1.20;;
71162;SDS011;58858;50.948;6.566;2023-03-14T03:22:40;4.13;;;1.30;;
71162;SDS011;58858;50.948;6.566;2023-03-14T03:32:44;5.63;;;1.70;;
71162;SDS011;58858;50.948;6.566;2023-03-14T03:42:46;8.55;;;2.03;;
71162;SDS011;58858;50.948;6.566;2023-03-14T03:52:48;8.85;;;2.05;;
71162;SDS011;58858;50.948;6.566;2023-03-14T04:02:50;7.68;;;2.33;;
71162;SDS011;58858;50.948;6.566;2023-03-14T04:12:53;4.22;;;1.55;;
71162;SDS011;58858;50.948;6.566;2023-03-14T04:22:58;2.17;;;0.47;;
71162;SDS011;58858;50.948;6.566;2023-03-14T04:33:00;1.10;;;0.38;;
71162;SDS011;58858;50.948;6.566;2023-03-14T04:43:05;4.13;;;0.60;;
71162;SDS011;58858;50.948;6.566;2023-03-14T04:53:06;4.55;;;1.80;;
71162;SDS011;58858;50.948;6.566;2023-03-14T05:03:08;2.30;;;0.50;;
71162;SDS011;58858;50.948;6.566;2023-03-14T05:13:28;1.42;;;0.50;;
71162;SDS011;58858;50.948;6.566;2023-03-14T05:23:45;2.95;;;0.35;;
71162;SDS011;58858;50.948;6.566;2023-03-14T05:34:02;0.50;;;0.17;;
71162;SDS011;58858;50.948;6.566;2023-03-14T05:44:12;1.25;;;0.25;;
71162;SDS011;58858;50.948;6.566;2023-03-14T05:54:31;0.35;;;0.05;;
71162;SDS011;58858;50.948;6.566;2023-03-14T06:04:42;0.13;;;0.08;;
71162;SDS011;58858;50.948;6.566;2023-03-14T06:14:43;2.30;;;0.30;;
71162;SDS011;58858;50.948;6.566;2023-03-14T06:24:45;0.30;;;0.20;;
71162;SDS011;58858;50.948;6.566;2023-03-14T06:34:46;3.88;;;0.20;;
71162;SDS011;58858;50.948;6.566;2023-03-14T06:44:48;3.40;;;0.80;;
71162;SDS011;58858;50.948;6.566;2023-03-14T06:54:49;0.00;;;0.00;;
71162;SDS011;58858;50.948;6.566;2023-03-14T07:05:15;0.05;;;0.00;;
71162;SDS011;58858;50.948;6.566;2023-03-14T07:15:16;0.95;;;0.50;;
71162;SDS011;58858;50.948;6.566;2023-03-14T07:25:17;2.00;;;0.40;;
71162;SDS011;58858;50.948;6.566;2023-03-14T07:35:18;0.35;;;0.28;;
71162;SDS011;58858;50.948;6.566;2023-03-14T07:45:19;0.60;;;0.52;;
71162;SDS011;58858;50.948;6.566;2023-03-14T07:55:21;0.20;;;0.20;;
71162;SDS011;58858;50.948;6.566;2023-03-14T08:05:22;0.40;;;0.40;;
71162;SDS011;58858;50.948;6.566;2023-03-14T08:15:23;0.30;;;0.30;;
71162;SDS011;58858;50.948;6.566;2023-03-14T08:25:25;2.28;;;0.43;;
71162;SDS011;58858;50.948;6.566;2023-03-14T08:35:27;4.07;;;0.30;;
71162;SDS011;58858;50.948;6.566;2023-03-14T08:45:28;0.20;;;0.20;;
71162;SDS011;58858;50.948;6.566;2023-03-14T08:55:29;0.43;;;0.28;;
71162;SDS011;58858;50.948;6.566;2023-03-14T09:05:32;0.10;;;0.10;;
71162;SDS011;58858;50.948;6.566;2023-03-14T09:15:34;0.98;;;0.45;;
71162;SDS011;58858;50.948;6.566;2023-03-14T09:25:35;0.17;;;0.17;;
71162;SDS011;58858;50.948;6.566;2023-03-14T09:35:36;0.75;;;0.38;;
71162;SDS011;58858;50.948;6.566;2023-03-14T09:45:38;1.50;;;0.80;;
71162;SDS011;58858;50.948;6.566;2023-03-14T09:55:41;1.38;;;0.70;;
71162;SDS011;58858;50.948;6.566;2023-03-14T10:05:42;8.15;;;4.80;;
71162;SDS011;58858;50.948;6.566;2023-03-14T10:36:19;1.65;;;0.90;;
71162;SDS011;58858;50.948;6.566;2023-03-14T10:46:23;1.02;;;0.50;;
71162;SDS011;58858;50.948;6.566;2023-03-14T10:56:44;1.63;;;0.65;;
71162;SDS011;58858;50.948;6.566;2023-03-14T11:37:26;3.20;;;0.43;;
71162;SDS011;58858;50.948;6.566;2023-03-14T11:47:34;1.58;;;0.50;;
71162;SDS011;58858;50.948;6.566;2023-03-14T11:57:39;0.52;;;0.43;;
71162;SDS011;58858;50.948;6.566;2023-03-14T12:07:52;3.08;;;1.50;;
71162;SDS011;58858;50.948;6.566;2023-03-14T12:18:11;4.55;;;0.65;;
71162;SDS011;58858;50.948;6.566;2023-03-14T12:48:50;4.60;;;1.42;;
71162;SDS011;58858;50.948;6.566;2023-03-14T13:08:58;5.90;;;1.50;;
71162;SDS011;58858;50.948;6.566;2023-03-14T13:19:29;6.40;;;1.73;;
71162;SDS011;58858;50.948;6.566;2023-03-14T13:29:31;14.82;;;2.13;;
71162;SDS011;58858;50.948;6.566;2023-03-14T13:39:32;6.05;;;0.80;;
71162;SDS011;58858;50.948;6.566;2023-03-14T13:49:33;3.75;;;1.60;;
71162;SDS011;58858;50.948;6.566;2023-03-14T13:59:36;9.98;;;2.70;;
71162;SDS011;58858;50.948;6.566;2023-03-14T14:09:56;16.45;;;2.72;;
71162;SDS011;58858;50.948;6.566;2023-03-14T14:20:00;13.07;;;2.28;;
71162;SDS011;58858;50.948;6.566;2023-03-14T14:40:20;12.55;;;2.92;;
71162;SDS011;58858;50.948;6.566;2023-03-14T14:50:29;11.10;;;1.67;;
71162;SDS011;58858;50.948;6.566;2023-03-14T15:00:34;11.27;;;2.55;;
71162;SDS011;58858;50.948;6.566;2023-03-14T15:10:40;16.00;;;2.53;;
71162;SDS011;58858;50.948;6.566;2023-03-14T15:20:42;13.73;;;4.28;;
71162;SDS011;58858;50.948;6.566;2023-03-14T15:30:44;7.43;;;2.20;;
71162;SDS011;58858;50.948;6.566;2023-03-14T15:40:45;19.98;;;4.20;;
71162;SDS011;58858;50.948;6.566;2023-03-14T15:50:46;13.57;;;2.30;;
71162;SDS011;58858;50.948;6.566;2023-03-14T16:00:47;14.32;;;3.25;;
71162;SDS011;58858;50.948;6.566;2023-03-14T16:10:49;11.10;;;3.08;;
71162;SDS011;58858;50.948;6.566;2023-03-14T16:21:00;16.15;;;2.33;;
71162;SDS011;58858;50.948;6.566;2023-03-14T16:31:03;6.43;;;2.10;;
71162;SDS011;58858;50.948;6.566;2023-03-14T16:41:09;6.35;;;1.88;;
71162;SDS011;58858;50.948;6.566;2023-03-14T16:51:13;16.88;;;3.35;;
71162;SDS011;58858;50.948;6.566;2023-03-14T17:01:16;11.98;;;1.75;;
71162;SDS011;58858;50.948;6.566;2023-03-14T17:11:18;9.63;;;1.38;;
71162;SDS011;58858;50.948;6.566;2023-03-14T17:21:20;7.43;;;2.78;;
71162;SDS011;58858;50.948;6.566;2023-03-14T17:31:21;7.10;;;2.28;;
71162;SDS011;58858;50.948;6.566;2023-03-14T17:41:23;18.83;;;2.70;;
71162;SDS011;58858;50.948;6.566;2023-03-14T17:51:24;7.03;;;2.33;;
71162;SDS011;58858;50.948;6.566;2023-03-14T18:01:25;5.65;;;1.65;;
71162;SDS011;58858;50.948;6.566;2023-03-14T18:11:27;9.75;;;1.60;;
71162;SDS011;58858;50.948;6.566;2023-03-14T18:21:28;8.77;;;2.30;;
71162;SDS011;58858;50.948;6.566;2023-03-14T18:31:31;10.95;;;1.83;;
71162;SDS011;58858;50.948;6.566;2023-03-14T18:41:34;8.75;;;1.20;;
71162;SDS011;58858;50.948;6.566;2023-03-14T18:51:36;10.80;;;2.25;;
71162;SDS011;58858;50.948;6.566;2023-03-14T19:01:37;15.73;;;2.70;;
71162;SDS011;58858;50.948;6.566;2023-03-14T19:11:38;6.50;;;1.38;;
71162;SDS011;58858;50.948;6.566;2023-03-14T19:21:39;3.80;;;1.40;;
71162;SDS011;58858;50.948;6.566;2023-03-14T19:31:40;8.35;;;1.48;;
71162;SDS011;58858;50.948;6.566;2023-03-14T19:41:41;18.40;;;2.45;;
71162;SDS011;58858;50.948;6.566;2023-03-14T19:51:43;11.55;;;2.20;;
71162;SDS011;58858;50.948;6.566;2023-03-14T20:01:44;9.18;;;2.08;;
71162;SDS011;58858;50.948;6.566;2023-03-14T20:11:48;8.82;;;2.50;;
71162;SDS011;58858;50.948;6.566;2023-03-14T20:21:49;10.10;;;2.08;;
71162;SDS011;58858;50.948;6.566;2023-03-14T20:31:50;12.35;;;2.58;;
71162;SDS011;58858;50.948;6.566;2023-03-14T20:41:51;9.07;;;2.25;;
71162;SDS011;58858;50.948;6.566;2023-03-14T20:51:52;9.45;;;2.78;;
71162;SDS011;58858;50.948;6.566;2023-03-14T21:01:53;10.18;;;1.90;;
71162;SDS011;58858;50.948;6.566;2023-03-14T21:11:57;7.00;;;3.05;;
71162;SDS011;58858;50.948;6.566;2023-03-14T21:21:59;13.50;;;3.10;;
71162;SDS011;58858;50.948;6.566;2023-03-14T21:32:00;10.20;;;3.15;;
71162;SDS011;58858;50.948;6.566;2023-03-14T21:42:01;6.55;;;2.33;;
71162;SDS011;58858;50.948;6.566;2023-03-14T21:52:04;11.23;;;2.70;;
71162;SDS011;58858;50.948;6.566;2023-03-14T22:02:07;14.85;;;3.70;;
71162;SDS011;58858;50.948;6.566;2023-03-14T22:12:11;15.25;;;3.05;;
71162;SDS011;58858;50.948;6.566;2023-03-14T22:22:16;10.25;;;3.50;;
71162;SDS011;58858;50.948;6.566;2023-03-14T22:32:18;10.10;;;2.38;;
71162;SDS011;58858;50.948;6.566;2023-03-14T22:42:19;8.85;;;2.17;;
71162;SDS011;58858;50.948;6.566;2023-03-14T22:52:20;12.18;;;3.58;;
71162;SDS011;58858;50.948;6.566;2023-03-14T23:02:21;8.95;;;2.90;;
71162;SDS011;58858;50.948;6.566;2023-03-14T23:12:22;10.07;;;3.13;;
71162;SDS011;58858;50.948;6.566;2023-03-14T23:22:23;9.80;;;3.33;;
71162;SDS011;58858;50.948;6.566;2023-03-14T23:32:24;10.63;;;3.85;;
71162;SDS011;58858;50.948;6.566;2023-03-14T23:42:25;12.20;;;4.00;;
71162;SDS011;58858;50.948;6.566;2023-03-14T23:52:26;17.55;;;4.20;;
